Memphis, Indiana
Current Conditions -  °F | °C
As of 6:53 PM on Monday 22 Dec 2014 (Local Time) from KLOU Reporting Station
Overcast Overcast  
Wind Chill: 52°   Ceiling: 3600
Heat Index: 52°   Visibility: 10mi
Dew Point: 42°   Wind: 6mph
Humidity: 69%   Direction: 120°ESE
Pressure: 29.74"   Gusts: NA
Location:  38.47°N, 85.77°W
Report Text: KLOU 222353Z 12005KT 10SM OVC036 11/06 A2974 RMK AO2 SLP073 T01110056 10117 20111 58013
Loading
Personal Weather Stations






























Interactive Weather Map New forecast layout! Learn more

10-Day Weather Forecast

Advertisements
Track Severe Weather on mobile